Latest Weather Observations for Kingfish B

IDV60801

Issued at 3:05 pm EDT Friday 28 November 2014 (issued every 30 minutes, with the page automatically refreshed every 10 minutes)

About weather observations | Map of weather stations | Latest weather observations for VIC | Other Formats
Station Details ID: 400139 Name: KINGFISH B (PLATFORM) Lat: -38.60 Lon: 148.19 Height: 31.4 m
Data from the previous 72 hours. | See also: Recent months for locations in Victoria
Date/Time
EDT
Temp
°C
App
Temp
°C
Dew
Point
Rel
Hum
%
Delta-T
°C
Wind Press
QNH
hPa
Press
MSL
hPa
Rain
since 9 am
mm
Dir
 
Spd
km/h
Gust
km/h
Spd
kts
Gust
kts
28/02:40pm 15.2 14.3 11.2 77 2.1 SSE 7 11 4 6 1022.3 - -
28/01:30pm 15.5 15.9 11.2 75 2.3 CALM 0 2 0 1 1022.5 - -
28/01:20pm 15.4 15.8 11.2 76 2.2 CALM 0 2 0 1 1022.6 - -
28/01:10pm 15.2 15.2 11.1 76 2.2 SSE 2 4 1 2 1022.6 - -
28/12:40pm 15.2 15.2 11.1 76 2.2 SSE 2 7 1 4 1022.7 - -
28/12:00pm 15.1 14.7 11.1 77 2.1 S 4 6 2 3 1023.0 - -
28/11:50am 14.9 13.9 10.9 77 2.1 SSE 7 9 4 5 1023.2 - -
28/11:40am 15.1 14.2 10.8 75 2.3 SSE 6 7 3 4 1023.2 - -
28/11:30am 15.2 14.3 10.8 75 2.3 S 6 7 3 4 1023.3 - -
28/11:20am 15.3 14.8 10.6 73 2.5 SSE 4 7 2 4 1023.3 - -
28/11:00am 16.1 16.4 10.8 71 2.8 CALM 0 0 0 0 1023.1 - -
28/10:50am 16.2 16.4 10.7 70 2.9 CALM 0 0 0 0 1023.2 - -
28/10:40am 16.3 16.5 10.6 69 3.0 CALM 0 0 0 0 1023.3 - -
28/10:30am 16.7 16.9 10.6 67 3.3 CALM 0 2 0 1 1023.4 - -
28/08:30am 16.2 15.7 10.7 70 2.9 S 4 6 2 3 1023.3 - -
28/08:20am 15.8 15.3 10.8 72 2.7 S 4 6 2 3 1023.2 - -
28/07:30am 14.4 13.9 10.8 79 1.9 SSE 4 6 2 3 1022.9 - -
28/07:20am 13.9 13.4 10.8 81 1.6 SSE 4 6 2 3 1022.8 - -
28/07:10am 13.3 12.7 10.4 82 1.5 SSE 4 6 2 3 1022.8 - -
28/07:00am 13.2 13.0 10.3 82 1.5 SSE 2 4 1 2 1022.8 - -
28/06:50am 13.1 12.8 10.2 82 1.5 S 2 4 1 2 1022.8 - -
28/06:40am 13.0 13.1 10.1 82 1.5 CALM 0 4 0 2 1022.8 - -
28/06:30am 12.9 12.9 9.9 82 1.5 CALM 0 0 0 0 1022.7 - -
28/06:20am 13.0 13.0 9.8 81 1.6 CALM 0 0 0 0 1022.5 - -
28/06:10am 13.0 13.0 9.8 81 1.6 CALM 0 0 0 0 1022.4 - -
28/05:40am 13.4 13.5 10.1 80 1.7 CALM 0 0 0 0 1022.2 - -
28/05:20am 13.6 13.7 10.1 79 1.8 CALM 0 0 0 0 1022.1 - -
28/04:50am 13.9 14.1 10.5 80 1.8 CALM 0 0 0 0 1022.2 - -
28/04:40am 13.6 13.7 10.1 79 1.8 CALM 0 0 0 0 1022.2 - -
28/04:20am 13.6 13.7 10.0 79 1.9 CALM 0 0 0 0 1022.4 - -
28/03:40am 14.3 14.5 10.4 77 2.0 CALM 0 0 0 0 1022.6 - -
28/03:20am 13.9 14.0 10.0 77 2.0 CALM 0 0 0 0 1022.8 - -
28/03:00am 14.0 14.1 10.0 77 2.1 CALM 0 0 0 0 1023.1 - -
28/02:50am 13.9 13.9 9.7 76 2.2 CALM 0 0 0 0 1023.2 - -
28/02:40am 14.2 14.2 9.8 75 2.3 CALM 0 0 0 0 1023.4 - -
28/02:30am 14.3 14.3 9.9 75 2.3 CALM 0 0 0 0 1023.5 - -
28/02:00am 14.0 14.1 10.1 77 2.0 CALM 0 0 0 0 1023.7 - -
28/01:50am 13.6 13.7 10.0 79 1.9 CALM 0 0 0 0 1023.8 - -
28/01:40am 13.2 13.2 9.7 79 1.8 CALM 0 0 0 0 1023.9 - -
28/01:30am 13.0 12.9 9.6 80 1.7 CALM 0 0 0 0 1024.1 - -
28/01:20am 12.5 12.3 9.2 80 1.7 CALM 0 0 0 0 1024.2 - -
28/01:00am 12.0 11.7 8.5 79 1.7 CALM 0 0 0 0 1024.4 - -
28/12:50am 12.1 11.8 8.6 79 1.7 CALM 0 0 0 0 1024.5 - -
28/12:40am 12.1 11.7 8.4 78 1.8 CALM 0 2 0 1 1024.5 - -
28/12:30am 12.1 11.7 8.3 77 1.9 CALM 0 0 0 0 1024.6 - -
28/12:20am 12.3 11.9 8.3 76 2.0 CALM 0 0 0 0 1024.6 - -
28/12:10am 12.6 12.3 8.5 76 2.0 CALM 0 0 0 0 1024.6 - -
28/12:00am 12.7 12.4 8.6 76 2.0 CALM 0 4 0 2 1024.7 - -
 
Date/Time
EDT
Temp
°C
App
Temp
°C
Dew
Point
Rel
Hum
%
Delta-T
°C
Wind Press
QNH
hPa
Press
MSL
hPa
Rain
since 9 am
mm
Dir
 
Spd
km/h
Gust
km/h
Spd
kts
Gust
kts
27/11:50pm 12.8 12.5 8.6 75 2.1 CALM 0 2 0 1 1024.8 - -
27/11:40pm 12.9 12.2 8.6 75 2.1 SE 2 6 1 3 1024.8 - -
27/11:30pm 12.9 12.2 8.6 75 2.1 SSE 2 7 1 4 1024.8 - -
27/11:20pm 12.9 12.2 8.6 75 2.1 SSE 2 6 1 3 1024.8 - -
27/11:10pm 13.0 12.7 8.7 75 2.2 CALM 0 4 0 2 1024.8 - -
27/11:00pm 12.9 12.2 8.7 75 2.1 SSE 2 7 1 4 1024.8 - -
27/10:50pm 13.0 12.3 8.7 75 2.2 SSE 2 6 1 3 1024.7 - -
27/10:40pm 13.0 12.3 8.7 75 2.2 SSE 2 6 1 3 1024.7 - -
27/10:30pm 13.0 12.3 8.6 74 2.2 S 2 4 1 2 1024.7 - -
27/10:20pm 13.0 12.3 8.7 75 2.2 S 2 4 1 2 1024.7 - -
27/08:30pm 13.5 11.9 8.6 72 2.5 S 7 9 4 5 1023.9 - -
27/08:20pm 13.5 11.9 8.6 72 2.5 S 7 11 4 6 1023.9 - -
27/08:10pm 13.6 12.0 8.6 72 2.5 S 7 11 4 6 1024.0 - -
27/08:00pm 13.7 12.1 8.6 71 2.6 S 7 9 4 5 1024.0 - -
27/07:50pm 13.9 12.3 8.8 71 2.6 SSW 7 9 4 5 1023.9 - -
27/07:40pm 13.8 12.2 8.8 72 2.5 SSW 7 9 4 5 1023.8 - -
27/07:30pm 13.6 11.6 8.5 71 2.6 S 9 11 5 6 1023.7 - -
27/07:20pm 13.7 11.7 8.5 71 2.6 SSW 9 13 5 7 1023.7 - -
27/07:10pm 13.7 11.3 8.6 71 2.6 SSW 11 13 6 7 1023.7 - -
27/07:00pm 13.9 11.5 8.8 71 2.6 SSW 11 13 6 7 1023.6 - -
27/06:50pm 13.9 11.1 8.7 71 2.6 SSW 13 17 7 9 1023.7 - -
27/06:40pm 14.0 11.2 8.7 70 2.7 SSW 13 15 7 8 1023.7 - -
27/06:30pm 14.0 11.2 8.7 70 2.7 SSW 13 17 7 9 1023.8 - -
27/06:20pm 14.1 11.0 8.8 70 2.7 SSW 15 19 8 10 1023.9 - -
27/06:10pm 14.1 11.0 8.8 70 2.7 SSW 15 19 8 10 1024.0 - -
27/06:00pm 14.1 11.4 8.8 70 2.7 SSW 13 17 7 9 1024.0 - -
27/05:50pm 14.0 10.5 8.7 70 2.7 SSW 17 19 9 10 1024.0 - -
27/05:40pm 14.1 10.6 8.8 70 2.7 SSW 17 19 9 10 1023.9 - -
27/05:30pm 14.3 10.8 8.8 69 2.8 SSW 17 19 9 10 1024.0 - -
27/05:20pm 14.4 10.9 8.9 69 2.8 SSW 17 20 9 11 1024.1 - -
27/05:10pm 14.4 10.9 8.9 69 2.8 SSW 17 19 9 10 1024.2 - -
27/05:00pm 14.4 10.9 8.7 68 2.9 SSW 17 19 9 10 1024.2 - -
27/04:50pm 14.7 11.2 8.6 67 3.1 SSW 17 20 9 11 1024.2 - -
27/04:40pm 15.0 11.9 8.7 66 3.2 SSW 15 19 8 10 1024.0 - -
27/04:30pm 14.9 11.3 8.5 65 3.2 SSW 17 20 9 11 1024.1 - -
27/04:20pm 15.3 11.8 8.7 64 3.4 SW 17 19 9 10 1024.1 - -
27/04:10pm 15.3 11.8 8.7 64 3.4 SW 17 19 9 10 1024.0 - -
27/04:00pm 15.3 11.8 8.8 65 3.3 SW 17 20 9 11 1024.2 - -
27/03:50pm 15.3 11.8 8.7 64 3.4 SW 17 20 9 11 1024.0 - -
27/03:40pm 15.3 11.4 8.8 65 3.3 SW 19 22 10 12 1024.1 - -
27/03:30pm 15.3 11.4 8.8 65 3.3 SW 19 20 10 11 1024.2 - -
27/03:10pm 15.4 11.4 9.0 65 3.3 SW 20 22 11 12 1024.1 - -
27/03:00pm 15.4 11.3 8.8 65 3.4 SW 20 26 11 14 1024.2 - -
27/02:50pm 15.5 11.0 8.7 64 3.5 SW 22 28 12 15 1024.1 - -
27/02:40pm 15.6 11.1 8.6 63 3.6 SW 22 28 12 15 1024.1 - -
27/02:30pm 15.8 11.0 8.7 62 3.6 SW 24 28 13 15 1024.2 - -
27/02:20pm 15.7 10.9 8.7 63 3.6 SW 24 28 13 15 1024.3 - -
27/02:10pm 15.9 11.0 8.5 61 3.8 SW 24 32 13 17 1024.3 - -
27/02:00pm 16.3 11.5 8.7 60 3.9 SW 24 28 13 15 1024.2 - -
27/01:50pm 16.3 11.9 8.9 61 3.8 SW 22 28 12 15 1024.4 - -
27/01:40pm 16.5 11.6 8.6 59 4.0 SW 24 30 13 16 1024.3 - -
27/01:30pm 16.7 11.4 8.5 58 4.2 SW 26 30 14 16 1024.2 - -
27/01:20pm 16.8 11.5 8.6 58 4.2 SW 26 32 14 17 1024.3 - -
27/01:10pm 17.1 11.8 8.4 56 4.5 SW 26 32 14 17 1024.3 - -
27/01:00pm 17.4 12.1 8.6 56 4.5 SW 26 30 14 16 1024.3 - -
27/12:50pm 17.5 12.2 8.4 55 4.7 SW 26 30 14 16 1024.3 - -
27/12:40pm 17.6 12.7 8.3 54 4.8 SW 24 28 13 15 1024.3 - -
27/12:30pm 17.7 12.8 8.4 54 4.8 SW 24 28 13 15 1024.3 - -
27/12:20pm 18.0 13.0 8.2 52 5.0 SW 24 30 13 16 1024.3 - -
27/12:10pm 17.9 13.0 8.3 53 4.9 SW 24 30 13 16 1024.3 - -
27/12:00pm 17.4 12.5 8.3 55 4.7 WSW 24 32 13 17 1024.3 - -
27/11:50am 17.8 12.8 8.2 53 4.9 SW 24 28 13 15 1024.3 - -
27/11:40am 17.9 12.5 8.0 52 5.1 WSW 26 30 14 16 1024.2 - -
27/11:30am 17.9 12.9 8.2 53 5.0 WSW 24 30 13 16 1024.3 - -
27/11:20am 18.0 13.0 8.0 52 5.1 WSW 24 28 13 15 1024.2 - -
27/11:10am 18.2 13.2 7.9 51 5.3 SW 24 30 13 16 1024.1 - -
27/11:00am 18.4 13.8 8.0 50 5.3 WSW 22 28 12 15 1024.2 - -
27/10:50am 18.3 13.3 8.2 51 5.2 WSW 24 28 13 15 1024.2 - -
27/10:40am 18.6 14.0 8.1 50 5.4 WSW 22 28 12 15 1024.2 - -
27/10:30am 18.6 14.0 8.0 50 5.4 WSW 22 26 12 14 1024.3 - -
27/10:20am 18.1 13.1 7.9 51 5.2 WSW 24 28 13 15 1024.2 - -
27/10:10am 17.5 12.5 7.9 53 4.9 SW 24 28 13 15 1024.2 - -
27/10:00am 17.3 12.3 8.1 54 4.7 WSW 24 28 13 15 1024.1 - -
27/09:50am 17.2 12.2 7.9 54 4.7 SW 24 28 13 15 1024.1 - -
27/09:30am 17.7 13.0 7.8 52 5.0 SW 22 32 12 17 1023.8 - -
27/09:20am 17.8 13.1 7.8 52 5.1 SW 22 28 12 15 1023.8 - -
27/09:10am 18.0 13.3 7.6 50 5.3 WSW 22 28 12 15 1023.6 - -
27/09:00am 18.2 13.1 7.6 50 5.4 WSW 24 30 13 16 1023.6 - -
27/08:50am 17.8 12.6 7.2 50 5.3 SW 24 28 13 15 1023.4 - -
27/08:40am 18.1 12.9 7.3 49 5.4 WSW 24 28 13 15 1023.4 - -
27/08:30am 18.7 13.5 7.4 47 5.7 WSW 24 30 13 16 1023.3 - -
27/08:20am 18.7 13.6 7.5 48 5.7 WSW 24 30 13 16 1023.1 - -
27/08:10am 17.7 12.5 7.2 50 5.3 SW 24 30 13 16 1023.0 - -
27/08:00am 16.6 11.7 7.0 53 4.8 SW 22 28 12 15 1022.9 - -
27/07:50am 16.3 11.5 7.4 55 4.4 SW 22 28 12 15 1022.9 - -
27/07:40am 15.8 10.9 7.1 56 4.3 SW 22 26 12 14 1022.7 - -
27/07:30am 15.1 10.6 6.8 57 4.1 SW 20 26 11 14 1022.6 - -
27/07:20am 14.7 9.8 6.8 59 3.9 SW 22 28 12 15 1022.4 - -
27/07:10am 14.7 9.9 7.2 61 3.7 SW 22 26 12 14 1022.5 - -
27/07:00am 14.2 9.6 6.7 60 3.6 SW 20 26 11 14 1022.5 - -
27/06:40am 14.2 8.5 6.7 60 3.6 SW 26 30 14 16 1022.2 - -
27/06:30am 14.2 9.3 6.9 61 3.6 SW 22 28 12 15 1022.2 - -
27/06:20am 14.1 9.4 6.1 58 3.8 SW 20 30 11 16 1022.1 - -
27/06:10am 14.1 8.8 6.6 60 3.6 SW 24 30 13 16 1021.9 - -
27/06:00am 14.0 9.4 6.4 60 3.7 SW 20 26 11 14 1021.9 - -
27/05:50am 14.0 9.4 6.3 60 3.7 SW 20 26 11 14 1021.7 - -
27/05:40am 14.3 8.9 6.5 59 3.8 SW 24 30 13 16 1021.7 - -
27/05:30am 14.4 9.4 6.6 59 3.8 SW 22 28 12 15 1021.7 - -
27/05:20am 14.4 9.5 6.8 60 3.7 SW 22 30 12 16 1021.6 - -
27/05:10am 14.5 9.6 6.8 60 3.7 SW 22 28 12 15 1021.7 - -
27/05:00am 14.5 9.5 6.6 59 3.8 WSW 22 30 12 16 1021.6 - -
27/04:50am 14.4 8.7 6.9 60 3.7 SW 26 32 14 17 1021.5 - -
27/04:40am 14.5 10.0 6.8 60 3.7 SW 20 30 11 16 1021.6 - -
27/04:30am 14.4 9.4 6.6 59 3.8 SW 22 32 12 17 1021.6 - -
27/04:20am 14.4 9.1 6.9 60 3.7 SW 24 33 13 18 1021.5 - -
27/04:10am 14.6 9.5 7.5 62 3.5 SW 24 33 13 18 1021.5 - -
27/04:00am 14.5 9.2 7.0 60 3.7 SW 24 28 13 15 1021.6 - -
27/03:50am 14.5 9.5 6.5 58 3.9 SW 22 33 12 18 1021.7 - -
27/03:40am 14.4 9.8 6.3 58 3.9 SW 20 28 11 15 1021.8 - -
27/03:30am 14.5 8.7 6.2 57 4.0 SW 26 32 14 17 1021.6 - -
27/03:20am 14.3 8.2 6.8 60 3.6 SW 28 35 15 19 1021.6 - -
27/03:10am 14.3 8.4 7.4 63 3.4 SW 28 32 15 17 1021.7 - -
27/03:00am 14.5 9.4 7.8 64 3.3 SW 24 35 13 19 1021.8 - -
27/02:50am 14.4 10.0 7.3 62 3.5 SW 20 26 11 14 1021.9 - -
27/02:40am 14.3 9.2 7.5 63 3.4 SW 24 32 13 17 1021.9 - -
27/02:20am 14.4 8.9 7.7 64 3.3 SW 26 30 14 16 1022.2 - -
27/02:10am 14.5 9.0 7.7 63 3.4 SW 26 30 14 16 1022.3 - -
27/02:00am 14.7 9.3 8.2 65 3.3 SSW 26 32 14 17 1022.4 - -
27/01:50am 14.9 8.8 8.2 64 3.4 SSW 30 35 16 19 1022.4 - -
27/01:40am 14.8 9.5 8.4 65 3.2 SSW 26 33 14 18 1022.5 - -
27/01:30am 14.7 9.4 8.5 66 3.1 SW 26 32 14 17 1022.5 - -
27/01:20am 14.6 9.3 8.5 67 3.1 SW 26 32 14 17 1022.4 - -
27/01:10am 14.6 9.3 8.5 67 3.1 SW 26 32 14 17 1022.4 - -
27/01:00am 14.5 8.4 8.2 66 3.2 SW 30 35 16 19 1022.2 - -
27/12:50am 14.5 9.1 8.0 65 3.2 SW 26 30 14 16 1022.3 - -
27/12:40am 14.4 8.5 7.7 64 3.3 SW 28 33 15 18 1022.2 - -
27/12:30am 14.6 8.1 8.0 64 3.3 SW 32 37 17 20 1022.1 - -
27/12:20am 15.4 9.2 7.9 61 3.8 SW 30 35 16 19 1022.1 - -
27/12:10am 15.2 9.2 8.5 64 3.4 SW 30 35 16 19 1022.2 - -
27/12:00am 14.6 8.5 8.2 65 3.2 SW 30 35 16 19 1021.9 - -
 
Date/Time
EDT
Temp
°C
App
Temp
°C
Dew
Point
Rel
Hum
%
Delta-T
°C
Wind Press
QNH
hPa
Press
MSL
hPa
Rain
since 9 am
mm
Dir
 
Spd
km/h
Gust
km/h
Spd
kts
Gust
kts
26/11:50pm 14.7 8.3 8.5 66 3.1 SW 32 39 17 21 1022.0 - -
26/11:40pm 14.8 8.3 8.3 65 3.3 SW 32 37 17 20 1022.1 - -
26/11:30pm 14.7 8.3 8.5 66 3.1 SSW 32 39 17 21 1022.4 - -
26/11:20pm 14.6 7.9 8.2 65 3.2 SW 33 41 18 22 1021.9 - -
26/11:10pm 14.6 7.6 8.4 66 3.1 SW 35 41 19 22 1021.8 - -
26/11:00pm 14.5 7.4 8.2 66 3.2 SW 35 41 19 22 1021.7 - -
26/10:50pm 14.4 7.7 8.1 66 3.1 SW 33 41 18 22 1021.8 - -
26/10:40pm 14.4 7.3 8.2 66 3.1 SW 35 43 19 23 1021.5 - -
26/10:30pm 14.4 7.0 8.2 66 3.1 SW 37 44 20 24 1021.2 - -
26/10:10pm 14.4 6.9 8.0 65 3.2 SW 37 43 20 23 1021.1 - -
26/10:00pm 14.4 6.9 7.9 65 3.2 SW 37 43 20 23 1021.0 - -
26/09:50pm 14.4 6.9 7.8 64 3.3 SW 37 44 20 24 1020.7 - -
26/09:40pm 14.4 5.4 7.4 63 3.4 SW 44 50 24 27 1020.1 - -
26/09:30pm 14.5 5.8 7.9 64 3.3 SW 43 52 23 28 1020.2 - -
26/09:20pm 14.5 5.7 7.9 64 3.3 SW 44 52 24 28 1020.1 - -
26/09:10pm 14.6 6.4 8.0 64 3.3 SW 41 50 22 27 1020.1 - -
26/09:00pm 14.8 6.9 8.0 64 3.4 SW 39 48 21 26 1020.1 - -
26/08:50pm 14.7 5.9 7.9 63 3.4 SW 44 50 24 27 1019.8 - -
26/08:40pm 14.9 6.3 8.0 63 3.5 SW 43 50 23 27 1019.8 - -
26/08:30pm 15.0 5.8 8.1 63 3.5 SW 46 54 25 29 1019.7 - -
26/08:20pm 15.1 6.6 8.4 64 3.4 SW 43 50 23 27 1020.0 - -
26/08:10pm 15.2 7.5 8.5 64 3.4 SW 39 46 21 25 1019.9 - -
26/08:00pm 15.3 7.1 8.4 63 3.5 SW 41 46 22 25 1019.9 - -
26/07:50pm 15.4 7.2 8.3 62 3.6 SW 41 48 22 26 1019.6 - -
26/07:40pm 15.4 7.2 8.4 63 3.5 SW 41 48 22 26 1019.3 - -
26/07:30pm 15.4 6.9 8.5 63 3.5 SW 43 50 23 27 1019.2 - -
26/07:20pm 15.4 6.9 8.7 64 3.4 SW 43 50 23 27 1019.1 - -
26/07:10pm 15.5 7.8 8.8 64 3.4 SW 39 44 21 24 1019.2 - -
26/07:00pm 15.5 8.3 9.2 66 3.2 SW 37 44 20 24 1019.3 - -
26/06:50pm 15.6 8.8 9.4 66 3.2 SW 35 44 19 24 1019.4 - -
26/06:40pm 15.6 8.8 9.3 66 3.3 SW 35 41 19 22 1019.3 - -
26/06:30pm 15.7 9.0 9.7 67 3.1 SW 35 41 19 22 1019.3 - -
26/06:20pm 15.8 9.2 9.9 68 3.1 SW 35 41 19 22 1019.2 - -
26/06:10pm 15.8 8.8 10.1 69 3.0 SW 37 41 20 22 1019.2 - -
26/06:00pm 15.9 10.0 10.4 70 2.9 SW 32 41 17 22 1019.3 - -
26/05:50pm 16.1 10.0 10.5 69 3.0 SW 33 39 18 21 1019.2 - -
26/05:40pm 16.2 10.1 10.5 69 3.0 SW 33 39 18 21 1019.2 - -
26/05:30pm 16.3 10.3 10.7 69 3.0 SW 33 39 18 21 1019.2 - -
26/05:20pm 16.2 10.2 10.8 70 2.9 SW 33 39 18 21 1019.4 - -
26/05:10pm 16.0 10.1 11.1 72 2.6 SSW 33 39 18 21 1019.4 - -
26/05:00pm 16.1 11.3 11.6 74 2.4 SW 28 35 15 19 1019.3 - -
26/04:50pm 16.3 11.5 11.6 74 2.5 SW 28 33 15 18 1019.3 - -
26/04:40pm 16.1 10.9 11.5 74 2.5 SW 30 35 16 19 1019.3 - -
26/04:30pm 16.1 10.6 11.8 75 2.3 SW 32 39 17 21 1019.3 - -
26/04:20pm 16.3 9.8 11.7 74 2.5 SSW 37 44 20 24 1019.7 - -
26/04:00pm 16.7 11.2 12.0 74 2.6 SW 32 37 17 20 1019.0 - -
26/03:50pm 16.8 11.2 12.0 73 2.6 SW 33 41 18 22 1019.1 - -
26/03:40pm 17.2 11.2 12.1 72 2.8 SW 35 44 19 24 1019.3 - -
26/03:30pm 17.6 9.8 11.8 69 3.2 SW 44 52 24 28 1018.9 - -
26/03:20pm 18.2 11.7 11.7 66 3.6 SW 37 50 20 27 1018.7 - -
26/03:10pm 18.0 13.2 11.6 66 3.5 SW 28 37 15 20 1018.8 - -
26/03:00pm 17.9 12.3 11.4 65 3.5 WSW 32 41 17 22 1018.7 - -
26/02:50pm 17.9 12.6 11.3 65 3.6 WSW 30 37 16 20 1018.8 - -
26/02:40pm 17.9 12.6 11.2 65 3.6 WSW 30 37 16 20 1018.8 - -
26/02:30pm 18.0 13.0 11.1 64 3.7 WSW 28 35 15 19 1018.8 - -
26/02:20pm 18.1 12.7 11.0 63 3.8 WSW 30 37 16 20 1018.8 - -
26/02:10pm 18.2 12.9 11.2 63 3.8 WSW 30 33 16 18 1018.8 - -
26/02:00pm 18.2 13.2 11.1 63 3.9 WSW 28 35 15 19 1018.9 - -
26/01:50pm 18.2 12.8 11.0 63 3.9 WSW 30 35 16 19 1018.9 - -
26/01:40pm 18.1 12.7 10.8 62 3.9 WSW 30 37 16 20 1019.0 - -
26/01:30pm 18.2 12.7 10.5 60 4.1 WSW 30 37 16 20 1018.9 - -
26/01:20pm 18.3 12.8 10.5 60 4.2 WSW 30 37 16 20 1018.8 - -
26/01:10pm 18.2 12.7 10.5 60 4.1 WSW 30 35 16 19 1018.9 - -
26/01:00pm 18.1 13.0 10.5 61 4.1 WSW 28 35 15 19 1019.0 - -
26/12:50pm 18.3 13.1 10.4 60 4.2 WSW 28 33 15 18 1019.0 - -
26/12:40pm 18.2 13.8 10.5 60 4.1 WSW 24 33 13 18 1019.1 - -
26/12:30pm 18.0 13.5 10.1 60 4.2 WSW 24 30 13 16 1019.2 - -
26/12:20pm 18.1 13.2 10.1 59 4.3 W 26 32 14 17 1019.2 - -
26/12:10pm 18.0 12.7 9.9 59 4.3 WSW 28 33 15 18 1019.2 - -
26/11:50am 18.2 13.3 9.9 58 4.4 WSW 26 32 14 17 1019.2 - -
26/11:40am 18.2 13.2 9.7 57 4.5 WSW 26 32 14 17 1019.2 - -
26/11:30am 18.0 12.7 9.7 58 4.4 WSW 28 35 15 19 1019.1 - -
26/11:20am 17.7 12.4 9.7 59 4.2 WSW 28 35 15 19 1019.1 - -
26/11:10am 17.4 12.0 9.6 60 4.1 W 28 32 15 17 1019.1 - -
26/11:00am 17.4 12.4 9.7 60 4.1 W 26 33 14 18 1019.1 - -
26/10:50am 17.4 11.6 9.6 60 4.1 W 30 35 16 19 1019.1 - -
26/10:40am 17.1 11.4 9.7 61 3.9 WSW 30 35 16 19 1019.1 - -
26/10:30am 17.0 10.7 9.6 61 3.9 WSW 33 37 18 20 1019.1 - -
26/10:20am 17.1 11.4 9.7 61 3.9 WSW 30 37 16 20 1019.1 - -
26/10:00am 16.7 11.0 9.7 63 3.7 WSW 30 37 16 20 1019.0 - -
26/09:50am 16.6 11.3 9.7 63 3.6 WSW 28 33 15 18 1019.0 - -
26/09:40am 16.8 11.5 9.7 63 3.7 WSW 28 33 15 18 1018.9 - -
26/09:30am 16.7 11.4 9.7 63 3.7 WSW 28 32 15 17 1018.8 - -
26/09:20am 16.6 11.7 9.8 64 3.6 WSW 26 32 14 17 1018.8 - -
26/09:10am 16.4 11.5 10.1 66 3.3 WSW 26 32 14 17 1018.8 - -
26/09:00am 16.0 11.5 10.2 68 3.1 WSW 24 28 13 15 1018.7 - -
26/08:50am 15.6 10.7 10.0 69 2.9 WSW 26 33 14 18 1018.7 - -
26/08:40am 15.3 10.0 9.8 69 2.9 WSW 28 35 15 19 1018.5 - -
26/08:30am 15.3 9.2 9.8 69 2.9 WSW 32 35 17 19 1018.5 - -
26/08:20am 15.3 9.6 9.8 69 2.9 WSW 30 35 16 19 1018.4 - -
26/08:10am 15.2 9.4 9.5 69 2.9 WSW 30 35 16 19 1018.4 - -
26/08:00am 15.2 9.0 9.4 68 3.0 WSW 32 37 17 20 1018.2 - -
26/07:50am 15.2 9.0 9.4 68 3.0 WSW 32 37 17 20 1018.1 - -
26/07:30am 15.2 9.4 9.6 69 2.9 WSW 30 37 16 20 1018.2 - -
26/07:20am 15.2 9.4 9.4 68 3.0 WSW 30 39 16 21 1018.2 - -
26/07:10am 15.4 9.2 9.4 67 3.1 WSW 32 35 17 19 1018.1 - -
26/07:00am 15.1 8.9 9.3 68 3.0 WSW 32 39 17 21 1017.9 - -
26/06:50am 15.0 9.1 9.1 68 3.0 WSW 30 37 16 20 1017.9 - -
26/06:40am 14.9 8.6 9.1 68 3.0 WSW 32 35 17 19 1017.9 - -
26/06:30am 14.9 9.0 9.1 68 3.0 WSW 30 35 16 19 1017.8 - -
26/06:20am 14.9 9.4 9.0 68 3.0 WSW 28 33 15 18 1017.8 - -
26/06:10am 14.9 9.0 9.0 68 3.0 WSW 30 35 16 19 1017.5 - -
26/06:00am 14.8 8.5 8.9 68 3.0 WSW 32 37 17 20 1017.5 - -
26/05:50am 14.8 8.3 9.0 68 3.0 WSW 33 37 18 20 1017.4 - -
26/05:40am 14.8 8.5 8.9 68 3.0 WSW 32 37 17 20 1017.5 - -
26/05:30am 14.8 8.3 9.0 68 3.0 WSW 33 39 18 21 1017.5 - -
26/05:20am 14.8 8.3 8.9 68 3.0 WSW 33 39 18 21 1017.3 - -
26/05:10am 14.8 8.3 8.9 68 3.0 WSW 33 39 18 21 1017.3 - -
26/05:00am 14.8 7.9 8.9 68 3.0 WSW 35 39 19 21 1017.4 - -
26/04:50am 14.8 8.3 9.1 68 2.9 WSW 33 39 18 21 1017.4 - -
26/04:40am 14.8 8.5 9.0 68 3.0 WSW 32 37 17 20 1017.5 - -
26/04:30am 14.7 8.4 8.8 68 3.0 WSW 32 37 17 20 1017.6 - -
26/04:20am 14.7 8.4 9.0 68 2.9 WSW 32 37 17 20 1017.6 - -
26/04:10am 14.7 8.4 9.1 69 2.9 WSW 32 37 17 20 1017.7 - -
26/04:00am 14.7 8.3 9.2 69 2.8 WSW 33 39 18 21 1017.6 - -
26/03:50am 14.6 7.8 9.1 69 2.8 WSW 35 41 19 22 1017.5 - -
26/03:40am 14.5 7.0 9.3 71 2.7 SW 39 44 21 24 1017.3 - -
26/03:30am 14.4 6.8 9.2 71 2.7 SW 39 44 21 24 1017.3 - -
26/03:10am 14.5 7.8 9.6 72 2.5 SW 35 43 19 23 1017.7 - -
26/03:00am 14.7 8.0 9.7 72 2.6 WSW 35 41 19 22 1017.8 - -
26/02:50am 14.7 8.0 9.7 72 2.6 WSW 35 41 19 22 1017.9 - -
26/02:40am 14.8 8.1 9.7 71 2.6 SW 35 41 19 22 1017.8 - -
26/02:30am 14.7 7.6 9.5 71 2.7 SW 37 43 20 23 1017.8 - -
26/02:20am 14.8 7.4 9.7 71 2.6 SW 39 44 21 24 1017.8 - -
26/02:10am 14.8 6.9 9.5 70 2.7 SW 41 48 22 26 1017.8 - -
26/02:00am 14.4 6.0 8.9 69 2.8 SW 43 50 23 27 1017.9 - -
26/01:50am 14.3 6.6 8.8 69 2.8 SW 39 44 21 24 1018.1 - -
26/01:40am 14.2 7.2 8.6 69 2.8 SW 35 43 19 23 1018.3 - -
26/01:30am 14.3 6.6 8.6 68 2.9 SW 39 44 21 24 1018.3 - -
26/01:20am 14.4 6.7 8.6 68 2.9 SW 39 43 21 23 1018.3 - -
26/01:10am 14.5 6.9 9.1 70 2.8 SW 39 43 21 23 1018.4 - -
26/01:00am 14.4 7.1 8.8 69 2.8 WSW 37 43 20 23 1018.5 - -
26/12:50am 14.4 6.8 9.0 70 2.7 WSW 39 44 21 24 1018.6 - -
26/12:40am 14.5 7.3 9.2 70 2.7 WSW 37 46 20 25 1018.6 - -
26/12:30am 14.6 7.0 9.1 69 2.8 WSW 39 44 21 24 1018.4 - -
26/12:20am 14.5 6.8 8.8 68 2.9 SW 39 44 21 24 1018.5 - -
26/12:10am 14.6 7.0 8.9 68 2.9 SW 39 44 21 24 1018.5 - -
26/12:00am 14.7 7.0 8.8 68 3.0 WSW 39 44 21 24 1018.5 - -
 
Date/Time
EDT
Temp
°C
App
Temp
°C
Dew
Point
Rel
Hum
%
Delta-T
°C
Wind Press
QNH
hPa
Press
MSL
hPa
Rain
since 9 am
mm
Dir
 
Spd
km/h
Gust
km/h
Spd
kts
Gust
kts
25/11:50pm 14.5 6.9 8.9 69 2.8 SW 39 44 21 24 1018.6 - -
25/11:40pm 14.5 6.9 9.0 69 2.8 SW 39 44 21 24 1018.6 - -
25/11:30pm 14.6 7.3 8.9 68 2.9 SW 37 44 20 24 1018.6 - -
25/11:20pm 14.6 6.5 8.7 67 3.0 SW 41 48 22 26 1018.5 - -
25/11:10pm 14.6 6.2 8.8 68 2.9 SW 43 50 23 27 1018.4 - -
25/11:00pm 14.6 7.0 8.9 68 2.9 SW 39 44 21 24 1018.5 - -
25/10:50pm 14.5 6.5 9.0 69 2.8 SW 41 46 22 25 1018.4 - -
25/10:40pm 14.7 7.6 9.4 70 2.7 SW 37 43 20 23 1018.5 - -
25/10:30pm 14.7 7.2 9.3 70 2.8 SW 39 44 21 24 1018.4 - -
25/10:20pm 14.7 7.6 9.4 70 2.7 SW 37 44 20 24 1018.5 - -
25/10:10pm 14.7 7.2 9.4 70 2.7 SW 39 46 21 25 1018.3 - -
25/10:00pm 14.8 7.3 9.5 70 2.7 SW 39 44 21 24 1018.5 - -
25/09:50pm 14.8 8.1 9.6 71 2.7 SW 35 44 19 24 1018.5 - -
25/09:30pm 15.1 8.4 9.7 70 2.8 SW 35 43 19 23 1018.5 - -
25/09:20pm 15.2 8.1 9.6 69 2.9 SW 37 44 20 24 1018.2 - -
25/09:10pm 15.3 7.4 9.4 68 3.0 SW 41 48 22 26 1018.0 - -
25/09:00pm 15.4 7.0 9.0 65 3.3 SW 43 50 23 27 1017.6 - -
25/08:50pm 15.6 6.6 9.0 65 3.4 SW 46 56 25 30 1017.5 - -
25/08:40pm 15.6 7.0 8.8 64 3.5 SW 44 56 24 30 1017.4 - -
25/08:30pm 15.6 6.2 8.7 63 3.5 SW 48 56 26 30 1017.1 - -
25/08:20pm 15.7 7.2 9.2 65 3.4 SW 44 57 24 31 1017.1 - -
25/08:10pm 15.8 7.3 9.1 64 3.4 SW 44 54 24 29 1016.9 - -
25/08:00pm 15.8 7.9 9.4 65 3.3 SW 41 52 22 28 1017.0 - -
25/07:50pm 15.8 7.9 9.2 65 3.4 SW 41 50 22 27 1016.8 - -
25/07:40pm 16.0 8.1 9.2 64 3.5 SW 41 52 22 28 1016.7 - -
25/07:30pm 15.9 7.5 8.8 62 3.6 SW 43 50 23 27 1016.4 - -
25/07:20pm 16.0 6.9 8.5 61 3.8 SW 46 56 25 30 1016.2 - -
25/07:10pm 16.0 7.4 8.9 62 3.6 SW 44 56 24 30 1016.1 - -
25/07:00pm 16.1 7.7 8.9 62 3.7 SW 43 52 23 28 1016.1 - -
25/06:50pm 16.1 8.7 9.7 66 3.3 SW 39 48 21 26 1016.2 - -
25/06:40pm 16.1 9.4 9.5 65 3.4 SW 35 46 19 25 1016.3 - -
25/06:30pm 16.1 8.2 9.2 63 3.6 SW 41 50 22 27 1016.1 - -
25/06:20pm 16.6 8.0 9.0 61 3.9 SW 44 52 24 28 1015.9 - -
25/06:10pm 16.1 6.7 8.8 62 3.7 SW 48 57 26 31 1015.7 - -
25/06:00pm 16.0 6.6 8.9 62 3.6 SW 48 56 26 30 1015.6 - -
25/05:50pm 16.2 7.3 9.1 63 3.7 SW 46 56 25 30 1015.6 - -
25/05:40pm 16.2 7.7 9.1 63 3.7 SW 44 56 24 30 1015.6 - -
25/05:30pm 16.1 7.1 8.9 62 3.7 SW 46 56 25 30 1015.5 - -
25/05:20pm 16.2 6.4 8.8 61 3.8 SW 50 57 27 31 1015.3 - -
25/05:10pm 16.3 6.9 8.9 61 3.8 SW 48 57 26 31 1015.3 - -
25/05:00pm 16.3 7.3 8.9 61 3.8 SW 46 57 25 31 1015.5 - -
25/04:50pm 16.3 7.3 8.7 60 3.9 SW 46 54 25 29 1015.6 - -
25/04:40pm 16.5 8.1 8.9 61 3.9 SW 43 52 23 28 1015.6 - -
25/04:30pm 16.4 8.0 8.9 61 3.9 SW 43 56 23 30 1015.6 - -
25/04:20pm 16.5 8.1 9.0 61 3.9 SW 43 52 23 28 1015.5 - -
25/04:10pm 16.5 8.0 9.2 62 3.8 SW 44 56 24 30 1015.5 - -
25/04:00pm 16.5 8.1 8.9 61 3.9 SW 43 50 23 27 1015.6 - -
25/03:50pm 16.5 8.4 8.7 60 4.0 SW 41 50 22 27 1015.7 - -
25/03:40pm 16.5 8.4 8.5 59 4.1 SW 41 48 22 26 1015.7 - -
25/03:30pm 16.4 7.6 8.2 58 4.2 SW 44 54 24 29 1015.5 - -
25/03:10pm 16.6 7.9 8.3 58 4.2 SW 44 54 24 29 1015.4 - -

Other Formats:

Comma delimited format used in spreadsheet applications
http://www.bom.gov.au/fwo/IDV60801/IDV60801.55039.axf

JavaScript Object Notation format (JSON) in row-major order
http://www.bom.gov.au/fwo/IDV60801/IDV60801.55039.json